Time;durP1;ratioP1;P1;durP2;ratioP2;P2;SDS_P1;SDS_P2;PMS_P1;PMS_P2;Temp;Humidity;BMP_temperature;BMP_pressure;BME280_temperature;BME280_humidity;BME280_pressure;Samples;Min_cycle;Max_cycle;Signal;HPM_P1;HPM_P2
2023/12/09 00:01:23;;;;;;;36.60;19.57;;;1.90;99.90;;;;;;6252382;22;20159;-89
2023/12/09 00:03:49;;;;;;;34.43;19.80;;;1.90;99.90;;;;;;6252382;22;20157;-90
2023/12/09 00:06:15;;;;;;;38.03;19.77;;;1.90;99.90;;;;;;6251992;22;20188;-90
2023/12/09 00:08:40;;;;;;;39.70;20.90;;;1.90;99.90;;;;;;6252192;22;20556;-90
2023/12/09 00:11:07;;;;;;;39.90;20.97;;;1.90;99.90;;;;;;6279175;22;20145;-89
2023/12/09 00:13:33;;;;;;;38.97;19.40;;;1.90;99.90;;;;;;6252049;22;20168;-90
2023/12/09 00:15:59;;;;;;;37.17;19.43;;;1.90;99.90;;;;;;6250635;22;20438;-89
2023/12/09 00:18:25;;;;;;;43.93;21.70;;;1.90;99.90;;;;;;6251816;22;20164;-91
2023/12/09 00:20:51;;;;;;;43.83;21.30;;;1.90;99.90;;;;;;6251514;22;20282;-90
2023/12/09 00:23:19;;;;;;;43.43;21.40;;;2.00;99.90;;;;;;6251484;22;20200;-91
2023/12/09 00:25:44;;;;;;;37.17;19.87;;;2.00;99.90;;;;;;6251814;22;20399;-90
2023/12/09 00:28:10;;;;;;;34.67;19.00;;;2.00;99.90;;;;;;6278083;22;20548;-90
2023/12/09 00:30:36;;;;;;;36.50;18.70;;;2.00;99.90;;;;;;6251965;22;20156;-90
2023/12/09 00:33:01;;;;;;;36.53;18.90;;;2.00;99.90;;;;;;6251860;22;20225;-89
2023/12/09 00:35:27;;;;;;;36.77;18.43;;;2.10;99.90;;;;;;6251905;22;20161;-90
2023/12/09 00:37:56;;;;;;;42.03;19.23;;;2.10;99.90;;;;;;6251545;22;20160;-90
2023/12/09 00:40:22;;;;;;;37.87;18.23;;;2.10;99.90;;;;;;6251912;22;20216;-89
2023/12/09 00:42:48;;;;;;;38.03;19.53;;;2.10;99.90;;;;;;6251436;22;20247;-89
2023/12/09 00:45:14;;;;;;;33.70;19.10;;;2.10;99.90;;;;;;6278633;22;20149;-88
2023/12/09 00:47:40;;;;;;;37.30;19.10;;;2.10;99.90;;;;;;6251847;22;20195;-88
2023/12/09 00:50:07;;;;;;;38.23;19.67;;;2.10;99.90;;;;;;6251834;22;20160;-90
2023/12/09 00:52:33;;;;;;;41.37;21.27;;;2.10;99.90;;;;;;6251556;22;20588;-89
2023/12/09 00:55:00;;;;;;;42.40;20.43;;;2.10;99.90;;;;;;6251379;22;20149;-89
2023/12/09 00:57:26;;;;;;;37.63;18.30;;;2.10;99.90;;;;;;6251650;22;20153;-89
2023/12/09 00:59:52;;;;;;;48.17;20.47;;;2.10;99.90;;;;;;6251845;22;20455;-89
2023/12/09 01:02:18;;;;;;;37.73;19.30;;;2.10;99.90;;;;;;6251381;22;20164;-90
2023/12/09 01:04:44;;;;;;;33.93;18.13;;;2.10;99.90;;;;;;6251760;22;20160;-89
2023/12/09 01:07:10;;;;;;;46.37;21.03;;;2.10;99.90;;;;;;6250891;22;20271;-88
2023/12/09 01:09:35;;;;;;;42.77;21.20;;;2.10;99.90;;;;;;6251341;22;20160;-89
2023/12/09 01:12:01;;;;;;;37.07;20.50;;;2.20;99.90;;;;;;6251183;22;20161;-88
2023/12/09 01:14:27;;;;;;;45.80;21.17;;;2.30;99.90;;;;;;6251478;22;20163;-88
2023/12/09 01:16:53;;;;;;;41.80;22.07;;;2.30;99.90;;;;;;6251444;22;20148;-88
2023/12/09 01:19:19;;;;;;;48.30;21.30;;;2.30;99.90;;;;;;6251573;22;20161;-88
2023/12/09 01:21:44;;;;;;;47.33;21.07;;;2.30;99.90;;;;;;6252010;22;20164;-88
2023/12/09 01:24:11;;;;;;;54.27;22.60;;;2.30;99.90;;;;;;6281766;22;20584;-88
2023/12/09 01:26:36;;;;;;;46.70;23.20;;;2.30;99.90;;;;;;6281862;22;20492;-89
2023/12/09 01:29:03;;;;;;;46.23;21.37;;;2.40;99.90;;;;;;6282020;22;20156;-88
2023/12/09 01:31:32;;;;;;;48.00;22.13;;;2.40;99.90;;;;;;6309454;22;20152;-89
2023/12/09 01:33:58;;;;;;;42.23;20.47;;;2.40;99.90;;;;;;6281996;22;20155;-88
2023/12/09 01:36:24;;;;;;;43.53;22.27;;;2.40;99.90;;;;;;6282113;22;20156;-88
2023/12/09 01:38:50;;;;;;;41.63;21.70;;;2.30;99.90;;;;;;6281830;22;20611;-88
2023/12/09 01:41:15;;;;;;;45.43;21.20;;;2.30;99.90;;;;;;6281956;22;20156;-88
2023/12/09 01:43:45;;;;;;;45.67;20.03;;;2.30;99.90;;;;;;6308875;22;20152;-88
2023/12/09 01:46:12;;;;;;;41.93;21.17;;;2.30;99.90;;;;;;6281614;22;20163;-89
2023/12/09 01:48:38;;;;;;;39.20;19.03;;;2.20;99.90;;;;;;6282218;22;20210;-89
2023/12/09 01:51:05;;;;;;;48.00;20.87;;;2.30;99.90;;;;;;6281834;22;20187;-88
2023/12/09 01:53:31;;;;;;;42.00;20.10;;;2.30;99.90;;;;;;6281545;22;20243;-88
2023/12/09 01:56:03;;;;;;;40.30;21.07;;;2.30;99.90;;;;;;6281795;22;20586;-89
2023/12/09 01:58:30;;;;;;;47.27;20.17;;;2.30;99.90;;;;;;6281725;22;20235;-88
2023/12/09 02:00:56;;;;;;;41.30;20.57;;;2.30;99.90;;;;;;6281746;22;20260;-88
2023/12/09 02:03:22;;;;;;;46.07;20.30;;;2.30;99.90;;;;;;6281924;22;20245;-88
2023/12/09 02:05:48;;;;;;;40.23;19.17;;;2.30;99.90;;;;;;6281619;22;20199;-89
2023/12/09 02:08:14;;;;;;;41.57;20.63;;;2.30;99.90;;;;;;6281205;22;20194;-88
2023/12/09 02:10:39;;;;;;;42.27;19.97;;;2.30;99.90;;;;;;6281812;22;20156;-88
2023/12/09 02:13:39;;;;;;;40.30;19.50;;;2.30;99.90;;;;;;6281730;22;20254;-88
2023/12/09 02:16:17;;;;;;;42.13;19.50;;;2.30;99.90;;;;;;6210763;22;20159;-88
2023/12/09 02:18:45;;;;;;;41.63;19.77;;;2.30;99.90;;;;;;6281885;22;20152;-88
2023/12/09 02:21:11;;;;;;;34.53;18.53;;;2.30;99.90;;;;;;6281526;22;20182;-87
2023/12/09 02:23:37;;;;;;;45.50;18.80;;;2.40;99.90;;;;;;6281622;22;20201;-88
2023/12/09 02:26:11;;;;;;;34.17;18.83;;;2.40;99.90;;;;;;6281436;22;20180;-87
2023/12/09 02:28:45;;;;;;;35.03;17.43;;;2.40;99.90;;;;;;6282044;22;20156;-88
2023/12/09 02:31:25;;;;;;;33.77;17.03;;;2.40;99.90;;;;;;6281553;22;20232;-87
2023/12/09 02:33:51;;;;;;;33.90;17.60;;;2.40;99.90;;;;;;6281583;22;20163;-88
2023/12/09 02:36:21;;;;;;;34.80;17.67;;;2.40;99.90;;;;;;6281553;22;20154;-87
2023/12/09 02:38:48;;;;;;;34.80;19.03;;;2.30;99.90;;;;;;6281285;22;20156;-89
2023/12/09 02:41:16;;;;;;;36.60;18.13;;;2.30;99.90;;;;;;6281269;22;20159;-89
2023/12/09 02:43:45;;;;;;;34.97;17.53;;;2.30;99.90;;;;;;6281535;22;20164;-87
2023/12/09 02:46:13;;;;;;;35.70;18.07;;;2.30;99.90;;;;;;6281275;22;20556;-88
2023/12/09 02:48:39;;;;;;;39.00;18.17;;;2.40;99.90;;;;;;6281522;22;20559;-87
2023/12/09 02:51:06;;;;;;;42.53;18.07;;;2.40;99.90;;;;;;6280753;22;20163;-87
2023/12/09 02:53:32;;;;;;;36.23;18.23;;;2.50;99.90;;;;;;6281020;22;20165;-88
2023/12/09 02:55:58;;;;;;;37.17;17.17;;;2.50;99.90;;;;;;6281815;22;20152;-88
2023/12/09 02:58:24;;;;;;;34.80;17.33;;;2.60;99.90;;;;;;6283486;22;20229;-87
2023/12/09 03:00:49;;;;;;;32.87;17.03;;;2.60;99.90;;;;;;6310509;22;20508;-88
2023/12/09 03:03:15;;;;;;;35.67;17.77;;;2.60;99.90;;;;;;6310772;22;20144;-89
2023/12/09 03:05:41;;;;;;;35.40;17.07;;;2.70;99.90;;;;;;6310796;22;20176;-87
2023/12/09 03:08:07;;;;;;;39.47;17.10;;;2.60;99.90;;;;;;6282634;22;20497;-88
2023/12/09 03:10:32;;;;;;;34.40;17.60;;;2.60;99.90;;;;;;6283395;22;20163;-89
2023/12/09 03:12:58;;;;;;;39.87;17.37;;;2.60;99.90;;;;;;6283198;22;20242;-88
2023/12/09 03:15:24;;;;;;;31.13;16.50;;;2.60;99.90;;;;;;6310247;22;20175;-89
2023/12/09 03:17:50;;;;;;;26.67;14.90;;;2.60;99.90;;;;;;6310056;22;20219;-88
2023/12/09 03:20:17;;;;;;;32.40;15.17;;;2.60;99.90;;;;;;6283460;22;20215;-88
2023/12/09 03:22:43;;;;;;;27.43;15.40;;;2.60;99.90;;;;;;6282546;22;20199;-86
2023/12/09 03:25:08;;;;;;;29.07;15.80;;;2.50;99.90;;;;;;6283411;22;20156;-89
2023/12/09 03:27:34;;;;;;;27.77;15.23;;;2.50;99.90;;;;;;6310720;22;20258;-88
2023/12/09 03:30:00;;;;;;;34.80;15.80;;;2.50;99.90;;;;;;6283331;22;20239;-88
2023/12/09 03:32:29;;;;;;;29.70;15.30;;;2.50;99.90;;;;;;6283437;22;20575;-88
2023/12/09 03:34:58;;;;;;;29.00;14.93;;;2.50;99.90;;;;;;6283601;22;20567;-88
2023/12/09 03:37:23;;;;;;;26.80;14.43;;;2.50;99.90;;;;;;6282626;22;20194;-88
2023/12/09 03:39:49;;;;;;;30.90;14.97;;;2.40;99.90;;;;;;6282961;22;20465;-88
2023/12/09 03:42:15;;;;;;;25.47;14.13;;;2.40;99.90;;;;;;6283212;22;20585;-87
2023/12/09 03:44:41;;;;;;;28.53;13.87;;;2.40;99.90;;;;;;6283230;22;20228;-89
2023/12/09 03:47:06;;;;;;;24.30;14.00;;;2.40;99.90;;;;;;6282913;22;20263;-88
2023/12/09 03:49:32;;;;;;;20.53;12.63;;;2.40;99.90;;;;;;6283333;22;20147;-88
2023/12/09 03:51:58;;;;;;;25.57;14.63;;;2.30;99.90;;;;;;6283252;22;20513;-89
2023/12/09 03:54:24;;;;;;;27.63;13.53;;;2.40;99.90;;;;;;6282949;22;20159;-88
2023/12/09 03:56:50;;;;;;;24.13;13.73;;;2.40;99.90;;;;;;6283053;22;20194;-89
2023/12/09 03:59:16;;;;;;;24.80;13.60;;;2.30;99.90;;;;;;6310602;22;20144;-88
2023/12/09 04:01:49;;;;;;;22.43;13.17;;;2.30;99.90;;;;;;6282726;22;20171;-88
2023/12/09 04:04:18;;;;;;;24.23;13.07;;;2.40;99.90;;;;;;6282643;22;20152;-87
2023/12/09 04:06:44;;;;;;;23.83;13.57;;;2.40;99.90;;;;;;6309502;22;20176;-87
2023/12/09 04:09:10;;;;;;;23.97;14.20;;;2.40;99.90;;;;;;6282579;22;20195;-88
2023/12/09 04:11:36;;;;;;;24.17;14.10;;;2.50;99.90;;;;;;6283343;22;20668;-88
2023/12/09 04:14:02;;;;;;;25.10;12.93;;;2.50;99.90;;;;;;6310412;22;20586;-88
2023/12/09 04:16:28;;;;;;;24.97;13.13;;;2.50;99.90;;;;;;6282619;22;20226;-89
2023/12/09 04:18:54;;;;;;;25.60;13.70;;;2.50;99.90;;;;;;6310202;22;20481;-88
2023/12/09 04:21:20;;;;;;;21.17;13.27;;;2.40;99.90;;;;;;6282937;22;20160;-89
2023/12/09 04:23:46;;;;;;;25.37;14.10;;;2.40;99.90;;;;;;6309792;22;20606;-88
2023/12/09 04:26:11;;;;;;;26.77;13.13;;;2.50;99.90;;;;;;6282654;22;20209;-88
2023/12/09 04:28:37;;;;;;;25.57;13.77;;;2.50;99.90;;;;;;6310152;22;20575;-88
2023/12/09 04:31:03;;;;;;;22.60;12.80;;;2.50;99.90;;;;;;6310251;22;20191;-88
2023/12/09 04:33:29;;;;;;;19.93;13.50;;;2.50;99.90;;;;;;6282669;22;20160;-88
2023/12/09 04:35:55;;;;;;;24.33;14.00;;;2.50;99.90;;;;;;6282249;22;20156;-88
2023/12/09 04:38:21;;;;;;;25.87;12.80;;;2.50;99.90;;;;;;6309459;22;20195;-88
2023/12/09 04:40:47;;;;;;;22.17;13.63;;;2.50;99.90;;;;;;6309497;22;20586;-88
2023/12/09 04:43:13;;;;;;;23.13;13.27;;;2.60;99.90;;;;;;6282858;22;20152;-86
2023/12/09 04:45:38;;;;;;;23.37;14.13;;;2.50;99.90;;;;;;6282311;22;20160;-87
2023/12/09 04:48:04;;;;;;;25.93;13.07;;;2.50;99.90;;;;;;6309976;22;20183;-88
2023/12/09 04:50:30;;;;;;;27.23;14.17;;;2.50;99.90;;;;;;6282349;22;20231;-88
2023/12/09 04:52:56;;;;;;;21.20;12.57;;;2.50;99.90;;;;;;6282245;22;20195;-88
2023/12/09 04:55:22;;;;;;;21.87;12.03;;;2.50;99.90;;;;;;6282194;22;20156;-87
2023/12/09 04:57:47;;;;;;;22.40;13.10;;;2.60;99.90;;;;;;6282633;22;20256;-88
2023/12/09 05:00:13;;;;;;;24.50;12.97;;;2.60;99.90;;;;;;6309698;22;20136;-88
2023/12/09 05:02:39;;;;;;;22.00;13.50;;;2.60;99.90;;;;;;6282784;22;20641;-87
2023/12/09 05:05:05;;;;;;;24.80;11.90;;;2.70;99.90;;;;;;6309601;22;20229;-87
2023/12/09 05:07:31;;;;;;;22.17;12.93;;;2.70;99.90;;;;;;6309894;22;20175;-87
2023/12/09 05:09:57;;;;;;;23.63;12.57;;;2.70;99.90;;;;;;6282206;22;20158;-87
2023/12/09 05:12:23;;;;;;;22.23;12.30;;;2.60;99.90;;;;;;6282027;22;20589;-88
2023/12/09 05:14:48;;;;;;;21.30;12.50;;;2.70;99.90;;;;;;6282665;22;20239;-88
2023/12/09 05:17:15;;;;;;;21.00;11.90;;;2.60;99.90;;;;;;6281449;22;20182;-88
2023/12/09 05:19:42;;;;;;;21.23;11.63;;;2.60;99.90;;;;;;6282242;22;20163;-86
2023/12/09 05:22:08;;;;;;;19.13;11.60;;;2.60;99.90;;;;;;6275567;22;20197;-88
2023/12/09 05:24:34;;;;;;;22.57;12.20;;;2.60;99.90;;;;;;6251160;22;20153;-88
2023/12/09 05:27:00;;;;;;;19.83;11.43;;;2.60;99.90;;;;;;6251462;22;20618;-88
2023/12/09 05:29:26;;;;;;;22.10;11.70;;;2.60;99.90;;;;;;6251941;22;20207;-87
2023/12/09 05:31:51;;;;;;;21.93;10.93;;;2.70;99.90;;;;;;6278197;22;20149;-87
2023/12/09 05:34:17;;;;;;;19.07;10.23;;;2.60;99.90;;;;;;6251802;22;20160;-88
2023/12/09 05:36:44;;;;;;;21.07;10.83;;;2.70;99.90;;;;;;6276643;22;20149;-87
2023/12/09 05:39:10;;;;;;;17.93;9.83;;;2.70;99.90;;;;;;6277656;22;20145;-87
2023/12/09 05:41:35;;;;;;;15.27;9.07;;;2.70;99.90;;;;;;6278351;22;20176;-87
2023/12/09 05:44:01;;;;;;;18.07;9.80;;;2.60;99.90;;;;;;6251132;22;20160;-86
2023/12/09 05:46:29;;;;;;;15.03;8.57;;;2.70;99.90;;;;;;6250899;22;20590;-86
2023/12/09 05:48:56;;;;;;;19.63;10.30;;;2.70;99.90;;;;;;6278375;22;20164;-88
2023/12/09 05:51:22;;;;;;;16.53;8.73;;;2.70;99.90;;;;;;6251209;22;20160;-87
2023/12/09 05:53:47;;;;;;;16.17;8.93;;;2.70;99.90;;;;;;6278090;22;20184;-88
2023/12/09 05:56:13;;;;;;;19.30;8.83;;;2.80;99.90;;;;;;6278546;22;20148;-88
2023/12/09 05:58:39;;;;;;;18.67;9.63;;;2.80;99.90;;;;;;6251423;22;20160;-86
2023/12/09 06:01:06;;;;;;;19.03;10.00;;;2.90;99.90;;;;;;6251271;22;20311;-87
2023/12/09 06:03:32;;;;;;;21.23;9.53;;;2.90;99.90;;;;;;6278440;22;20252;-87
2023/12/09 06:05:58;;;;;;;20.77;10.17;;;3.00;99.90;;;;;;6278185;22;20587;-87
2023/12/09 06:08:24;;;;;;;19.77;9.50;;;3.00;99.90;;;;;;6250965;22;20195;-87
2023/12/09 06:10:50;;;;;;;19.57;9.50;;;3.00;99.90;;;;;;6251115;22;20149;-86
2023/12/09 06:13:16;;;;;;;15.67;10.07;;;3.10;99.90;;;;;;6250976;22;20156;-86
2023/12/09 06:15:42;;;;;;;19.73;9.73;;;3.10;99.90;;;;;;6250874;22;20160;-86
2023/12/09 06:18:08;;;;;;;16.33;9.37;;;3.10;99.90;;;;;;6250364;22;20165;-86
2023/12/09 06:20:34;;;;;;;17.90;9.57;;;3.10;99.90;;;;;;6277856;22;20164;-87
2023/12/09 06:23:00;;;;;;;15.87;8.67;;;3.10;99.90;;;;;;6266837;22;20195;-86
2023/12/09 06:25:26;;;;;;;15.67;8.07;;;3.10;99.90;;;;;;6280930;22;20164;-87
2023/12/09 06:27:51;;;;;;;13.50;8.27;;;3.10;99.90;;;;;;6281124;22;20218;-87
2023/12/09 06:30:17;;;;;;;17.43;8.90;;;3.10;99.90;;;;;;6309833;22;20140;-87
2023/12/09 06:32:43;;;;;;;18.57;8.80;;;3.10;99.90;;;;;;6311034;22;20144;-87
2023/12/09 06:35:09;;;;;;;13.90;7.77;;;3.10;99.90;;;;;;6284200;22;20253;-87
2023/12/09 06:37:35;;;;;;;16.00;7.83;;;3.10;99.90;;;;;;6283765;22;20187;-86
2023/12/09 06:40:00;;;;;;;14.47;7.77;;;3.10;99.90;;;;;;6310796;22;20140;-88
2023/12/09 06:42:26;;;;;;;12.00;7.57;;;3.10;99.90;;;;;;6310648;22;20156;-87
2023/12/09 06:44:52;;;;;;;15.93;7.47;;;3.10;99.90;;;;;;6283920;22;20151;-87
2023/12/09 06:47:18;;;;;;;13.77;7.43;;;3.00;99.90;;;;;;6283762;22;20380;-87
2023/12/09 06:49:44;;;;;;;20.33;7.63;;;3.00;99.90;;;;;;6310418;22;20164;-85
2023/12/09 06:52:10;;;;;;;15.27;7.10;;;3.00;99.90;;;;;;6306975;22;20155;-86
2023/12/09 06:54:36;;;;;;;12.67;7.07;;;3.00;99.90;;;;;;6283241;22;20156;-87
2023/12/09 06:57:02;;;;;;;15.87;7.60;;;3.00;99.90;;;;;;6280966;22;20186;-88
2023/12/09 06:59:27;;;;;;;14.23;7.17;;;2.90;99.90;;;;;;6310118;22;20143;-88
2023/12/09 07:01:57;;;;;;;14.43;6.87;;;2.90;99.90;;;;;;6283502;22;20152;-87
2023/12/09 07:04:23;;;;;;;20.90;7.20;;;2.90;99.90;;;;;;6310867;22;20156;-87
2023/12/09 07:06:49;;;;;;;11.47;6.20;;;2.90;99.90;;;;;;6309554;22;20186;-88
2023/12/09 07:09:15;;;;;;;11.03;6.27;;;2.80;99.90;;;;;;6283224;22;20152;-87
2023/12/09 07:11:41;;;;;;;10.83;5.93;;;2.80;99.90;;;;;;6310893;22;20222;-89
2023/12/09 07:14:06;;;;;;;11.10;6.90;;;2.70;99.90;;;;;;6283424;22;20446;-88
2023/12/09 07:16:32;;;;;;;12.57;7.33;;;2.70;99.90;;;;;;6282665;22;20152;-88
2023/12/09 07:19:00;;;;;;;13.50;7.23;;;2.70;99.90;;;;;;6282817;22;20447;-88
2023/12/09 07:21:29;;;;;;;13.90;7.43;;;2.70;99.90;;;;;;6309480;22;20128;-88
2023/12/09 07:23:55;;;;;;;14.17;7.77;;;2.60;99.90;;;;;;6253388;22;20611;-87
2023/12/09 07:26:22;;;;;;;12.80;6.83;;;2.60;99.90;;;;;;6252774;22;20239;-87
2023/12/09 07:28:48;;;;;;;15.23;6.90;;;2.60;99.90;;;;;;6252635;22;20718;-87
2023/12/09 07:31:14;;;;;;;13.53;7.03;;;2.60;99.90;;;;;;6252707;22;20184;-88
2023/12/09 07:33:40;;;;;;;16.83;7.40;;;2.70;99.90;;;;;;6252541;22;20156;-87
2023/12/09 07:36:06;;;;;;;14.87;7.40;;;2.70;99.90;;;;;;6279326;22;20171;-87
2023/12/09 07:38:32;;;;;;;12.97;6.80;;;2.70;99.90;;;;;;6252559;22;20176;-87
2023/12/09 07:40:58;;;;;;;14.33;7.37;;;2.70;99.90;;;;;;6279433;22;20145;-86
2023/12/09 07:43:23;;;;;;;15.87;7.00;;;2.60;99.90;;;;;;6279337;22;20145;-87
2023/12/09 07:45:49;;;;;;;15.33;6.90;;;2.60;99.90;;;;;;6252372;22;20160;-88
2023/12/09 07:48:15;;;;;;;14.00;6.70;;;2.60;99.90;;;;;;6279436;22;20181;-88
2023/12/09 07:50:41;;;;;;;13.07;6.13;;;2.50;99.90;;;;;;6252705;22;20568;-88
2023/12/09 07:53:06;;;;;;;11.97;6.83;;;2.60;99.90;;;;;;6279431;22;20152;-87
2023/12/09 07:55:32;;;;;;;12.83;6.60;;;2.60;99.90;;;;;;6278782;22;20152;-88
2023/12/09 07:57:58;;;;;;;11.87;6.73;;;2.60;99.90;;;;;;6252295;22;20160;-88
2023/12/09 08:00:27;;;;;;;16.37;6.47;;;2.60;99.90;;;;;;6252170;22;20176;-86
2023/12/09 08:02:54;;;;;;;13.67;6.53;;;2.70;99.90;;;;;;6252282;22;20239;-87
2023/12/09 08:05:21;;;;;;;11.83;6.47;;;2.70;99.90;;;;;;6251498;22;20160;-88
2023/12/09 08:07:47;;;;;;;17.10;6.47;;;2.80;99.90;;;;;;6279751;22;20193;-88
2023/12/09 08:10:13;;;;;;;13.27;6.80;;;2.90;99.90;;;;;;6252229;22;20249;-86
2023/12/09 08:12:38;;;;;;;15.50;6.73;;;3.00;99.90;;;;;;6251789;22;20194;-86
2023/12/09 08:15:05;;;;;;;15.53;6.03;;;3.10;99.90;;;;;;6251756;22;20211;-87
2023/12/09 08:17:30;;;;;;;12.20;5.80;;;3.20;99.90;;;;;;6278678;22;20198;-88
2023/12/09 08:19:56;;;;;;;14.30;6.10;;;3.30;99.90;;;;;;6279417;22;20149;-88
2023/12/09 08:22:22;;;;;;;24.30;6.70;;;3.30;99.90;;;;;;6288038;22;20242;-87
2023/12/09 08:24:47;;;;;;;13.73;5.87;;;3.30;99.90;;;;;;6282011;22;20159;-89
2023/12/09 08:27:13;;;;;;;13.77;6.27;;;3.40;99.90;;;;;;6282152;22;20187;-87
2023/12/09 08:29:39;;;;;;;15.40;5.60;;;3.40;99.90;;;;;;6282552;22;20152;-87
2023/12/09 08:32:05;;;;;;;10.07;5.90;;;3.40;99.90;;;;;;6282333;22;20159;-87
2023/12/09 08:34:30;;;;;;;13.93;5.40;;;3.40;99.90;;;;;;6282542;22;20152;-89
2023/12/09 08:36:56;;;;;;;11.70;5.87;;;3.40;99.90;;;;;;6282226;22;20148;-88
2023/12/09 08:39:23;;;;;;;10.77;5.43;;;3.40;99.90;;;;;;6282948;22;20156;-88
2023/12/09 08:41:51;;;;;;;14.90;5.17;;;3.40;99.90;;;;;;6282873;22;20235;-88
2023/12/09 08:44:17;;;;;;;13.07;5.83;;;3.40;99.90;;;;;;6283155;22;20501;-88
2023/12/09 08:46:42;;;;;;;9.33;5.03;;;3.40;99.90;;;;;;6309551;22;20168;-86
2023/12/09 08:49:08;;;;;;;11.13;4.97;;;3.50;99.90;;;;;;6282448;22;20164;-88
2023/12/09 08:51:45;;;;;;;11.50;5.07;;;3.50;99.90;;;;;;6310289;22;20144;-87
2023/12/09 08:54:10;;;;;;;12.80;5.10;;;3.60;99.90;;;;;;6282147;22;20159;-88
2023/12/09 08:56:37;;;;;;;9.67;5.30;;;3.60;99.90;;;;;;6282544;22;20151;-88
2023/12/09 08:59:03;;;;;;;10.93;5.33;;;3.60;99.90;;;;;;6309838;22;20152;-90
2023/12/09 09:01:28;;;;;;;9.43;5.00;;;3.60;99.90;;;;;;6282401;22;20148;-88
2023/12/09 09:03:54;;;;;;;13.47;5.23;;;3.70;99.90;;;;;;6282648;22;20166;-90
2023/12/09 09:06:20;;;;;;;12.03;4.70;;;3.70;99.90;;;;;;6282379;22;20571;-90
2023/12/09 09:08:45;;;;;;;9.40;4.60;;;3.70;99.90;;;;;;6281953;22;20163;-87
2023/12/09 09:11:12;;;;;;;8.73;4.27;;;3.80;99.90;;;;;;6282445;22;20144;-87
2023/12/09 09:13:38;;;;;;;10.47;4.40;;;3.90;99.90;;;;;;6309808;22;20231;-88
2023/12/09 09:16:04;;;;;;;9.57;4.13;;;3.90;99.90;;;;;;6281678;22;20148;-88
2023/12/09 09:18:31;;;;;;;11.07;4.87;;;4.00;99.90;;;;;;6282068;22;20162;-88
2023/12/09 09:20:57;;;;;;;7.17;4.27;;;4.00;99.90;;;;;;6309536;22;20140;-87
2023/12/09 09:23:23;;;;;;;12.53;4.17;;;4.00;99.90;;;;;;6260514;22;20639;-88
2023/12/09 09:25:48;;;;;;;6.83;3.67;;;4.10;99.90;;;;;;6251616;22;20182;-87
2023/12/09 09:28:14;;;;;;;9.57;4.20;;;4.20;99.90;;;;;;6251483;22;20607;-88
2023/12/09 09:30:40;;;;;;;7.27;3.40;;;4.20;99.90;;;;;;6251863;22;20164;-89
2023/12/09 09:33:06;;;;;;;8.40;3.57;;;4.20;99.90;;;;;;6251507;22;20564;-88
2023/12/09 09:35:33;;;;;;;6.93;2.93;;;4.30;99.90;;;;;;6251436;22;20157;-90
2023/12/09 09:37:59;;;;;;;6.00;3.60;;;4.30;99.90;;;;;;6251652;22;20165;-88
2023/12/09 09:40:24;;;;;;;8.30;3.17;;;4.40;99.90;;;;;;6251739;22;20594;-86
2023/12/09 09:42:56;;;;;;;10.37;3.20;;;4.40;99.90;;;;;;6278554;22;20137;-88
2023/12/09 09:45:28;;;;;;;7.60;3.50;;;4.50;99.90;;;;;;6278407;22;20210;-88
2023/12/09 09:47:57;;;;;;;10.23;3.60;;;4.50;99.90;;;;;;6278377;22;20183;-88
2023/12/09 09:50:25;;;;;;;8.67;3.53;;;4.50;99.90;;;;;;6251420;22;20461;-87
2023/12/09 09:52:53;;;;;;;8.77;3.30;;;4.50;99.90;;;;;;6251378;22;20149;-88
2023/12/09 09:55:20;;;;;;;12.90;3.47;;;4.60;99.90;;;;;;6251268;22;20164;-87
2023/12/09 09:57:48;;;;;;;5.43;3.03;;;4.60;99.90;;;;;;6278599;22;20609;-87
2023/12/09 10:00:15;;;;;;;9.10;2.87;;;4.70;99.90;;;;;;6251706;22;20191;-88
2023/12/09 10:02:49;;;;;;;11.80;3.20;;;4.70;99.90;;;;;;6278323;22;20540;-87
2023/12/09 10:05:17;;;;;;;9.57;2.87;;;4.70;99.90;;;;;;6252355;22;20152;-88
2023/12/09 10:07:46;;;;;;;7.27;3.13;;;4.80;99.90;;;;;;6253545;22;20278;-87
2023/12/09 10:10:14;;;;;;;5.20;2.47;;;4.90;99.90;;;;;;6252987;22;20168;-86
2023/12/09 10:12:40;;;;;;;6.37;2.90;;;4.90;99.90;;;;;;6253712;22;20163;-88
2023/12/09 10:15:06;;;;;;;10.37;3.00;;;4.90;99.90;;;;;;6253507;22;20157;-87
2023/12/09 10:17:33;;;;;;;7.07;2.70;;;5.10;99.90;;;;;;6252662;22;20157;-88
2023/12/09 10:20:05;;;;;;;5.20;2.60;;;5.10;99.90;;;;;;6280318;22;20144;-87
2023/12/09 10:22:32;;;;;;;5.13;2.47;;;5.20;99.90;;;;;;6253433;22;20191;-87
2023/12/09 10:24:58;;;;;;;8.77;2.70;;;5.20;99.90;;;;;;6280659;22;20206;-90
2023/12/09 10:27:25;;;;;;;5.37;2.30;;;5.40;99.90;;;;;;6253408;22;20192;-88
2023/12/09 10:29:52;;;;;;;5.63;2.40;;;5.40;99.90;;;;;;6252261;22;20149;-88
2023/12/09 10:32:20;;;;;;;4.80;2.27;;;5.40;99.90;;;;;;6253308;22;20244;-88
2023/12/09 10:34:48;;;;;;;6.70;2.50;;;5.40;99.90;;;;;;6252626;22;20210;-87
2023/12/09 10:37:16;;;;;;;10.73;3.13;;;5.50;99.90;;;;;;6253082;22;20157;-86
2023/12/09 10:39:43;;;;;;;5.70;2.37;;;5.50;99.90;;;;;;6253222;22;20235;-87
2023/12/09 10:42:09;;;;;;;7.47;2.57;;;5.60;99.90;;;;;;6252499;22;20183;-88
2023/12/09 10:44:35;;;;;;;6.47;2.37;;;5.60;99.90;;;;;;6253036;22;20157;-88
2023/12/09 10:47:01;;;;;;;7.77;2.53;;;5.70;99.90;;;;;;6253123;22;20180;-88
2023/12/09 10:49:27;;;;;;;7.57;2.83;;;5.70;99.90;;;;;;6252263;22;20642;-88
2023/12/09 10:51:53;;;;;;;7.83;2.70;;;5.70;99.90;;;;;;6279862;22;20476;-87
2023/12/09 10:54:19;;;;;;;6.90;2.40;;;5.80;99.90;;;;;;6253137;22;20438;-88
2023/12/09 10:56:45;;;;;;;7.67;2.30;;;5.70;99.90;;;;;;6252874;22;20164;-86
2023/12/09 10:59:14;;;;;;;4.43;2.40;;;5.70;99.90;;;;;;6252706;22;20155;-86
2023/12/09 11:01:40;;;;;;;6.50;2.63;;;5.60;99.90;;;;;;6252608;22;20214;-87
2023/12/09 11:04:07;;;;;;;5.93;2.77;;;5.60;99.90;;;;;;6252446;22;20239;-87
2023/12/09 11:06:37;;;;;;;9.17;3.03;;;5.60;99.90;;;;;;6252480;22;20161;-87
2023/12/09 11:09:06;;;;;;;4.27;2.57;;;5.60;99.90;;;;;;6252526;22;20164;-87
2023/12/09 11:11:31;;;;;;;7.77;2.40;;;5.70;99.90;;;;;;6280039;22;20149;-86
2023/12/09 11:13:58;;;;;;;9.17;2.60;;;5.80;99.90;;;;;;6251312;22;20178;-87
2023/12/09 11:16:27;;;;;;;9.17;3.20;;;5.90;99.90;;;;;;6249082;22;20175;-87
2023/12/09 11:18:58;;;;;;;10.97;2.90;;;5.90;99.90;;;;;;6278149;22;20633;-86
2023/12/09 11:21:31;;;;;;;7.07;2.70;;;6.00;99.90;;;;;;6251677;22;20235;-88
2023/12/09 11:23:58;;;;;;;7.80;3.00;;;6.00;99.90;;;;;;6308004;22;20191;-86
2023/12/09 11:26:32;;;;;;;8.67;2.70;;;6.00;99.90;;;;;;6309094;22;20627;-86
2023/12/09 11:29:04;;;;;;;7.07;2.33;;;6.00;99.90;;;;;;6283075;22;20167;-87
2023/12/09 11:31:41;;;;;;;4.53;2.40;;;6.10;99.90;;;;;;6310135;22;20151;-86
2023/12/09 11:34:08;;;;;;;6.40;2.30;;;6.20;99.90;;;;;;6282782;22;20559;-86
2023/12/09 11:36:36;;;;;;;6.30;2.20;;;6.30;99.90;;;;;;6310004;22;20148;-86
2023/12/09 11:39:19;;;;;;;6.17;2.73;;;6.30;99.90;;;;;;6309552;22;20175;-87
2023/12/09 11:41:46;;;;;;;7.23;2.40;;;6.30;99.90;;;;;;6309569;22;20136;-85
2023/12/09 11:44:13;;;;;;;7.97;2.23;;;6.20;99.90;;;;;;6282568;22;20156;-86
2023/12/09 11:46:39;;;;;;;5.90;2.20;;;6.20;99.90;;;;;;6282763;22;20461;-87
2023/12/09 11:49:06;;;;;;;8.53;2.27;;;6.20;99.90;;;;;;6282678;22;20164;-87
2023/12/09 11:51:37;;;;;;;6.23;2.37;;;6.10;99.90;;;;;;6282335;22;20243;-87
2023/12/09 11:54:10;;;;;;;5.20;1.90;;;6.10;99.90;;;;;;6282528;22;20159;-85
2023/12/09 11:56:37;;;;;;;4.57;1.73;;;6.00;99.90;;;;;;6282910;22;20152;-87
2023/12/09 11:59:05;;;;;;;5.80;2.10;;;6.00;99.90;;;;;;6282328;22;20183;-86
2023/12/09 12:01:35;;;;;;;4.57;2.00;;;6.00;99.90;;;;;;6282247;22;20255;-85
2023/12/09 12:04:01;;;;;;;3.53;1.80;;;6.00;99.90;;;;;;6309381;22;20219;-85
2023/12/09 12:06:27;;;;;;;6.77;1.80;;;5.90;99.90;;;;;;6282289;22;20536;-85
2023/12/09 12:08:54;;;;;;;4.03;2.17;;;5.90;99.90;;;;;;6308919;22;20554;-86
2023/12/09 12:11:24;;;;;;;5.43;2.00;;;5.90;99.90;;;;;;6282079;22;20243;-86
2023/12/09 12:13:53;;;;;;;5.57;2.03;;;6.00;99.90;;;;;;6281260;22;20162;-84
2023/12/09 12:16:19;;;;;;;7.93;2.10;;;6.00;99.90;;;;;;6280401;22;20160;-87
2023/12/09 12:18:46;;;;;;;6.77;1.90;;;6.10;99.90;;;;;;6307210;22;20159;-84
2023/12/09 12:21:12;;;;;;;6.87;2.40;;;6.20;99.90;;;;;;6281338;22;20174;-86
2023/12/09 12:23:41;;;;;;;2.53;1.67;;;6.30;99.90;;;;;;6308353;22;20294;-85
2023/12/09 12:26:09;;;;;;;7.50;2.13;;;6.40;99.90;;;;;;6281367;22;20155;-86
2023/12/09 12:28:34;;;;;;;3.80;1.83;;;6.40;99.90;;;;;;6282155;22;20237;-85
2023/12/09 12:31:00;;;;;;;4.70;1.97;;;6.40;99.90;;;;;;6308757;22;20148;-86
2023/12/09 12:33:31;;;;;;;3.47;1.53;;;6.40;99.90;;;;;;6309111;22;20144;-85
2023/12/09 12:35:58;;;;;;;6.67;2.27;;;6.40;99.90;;;;;;6281430;22;20159;-85
2023/12/09 12:38:28;;;;;;;5.83;1.80;;;6.40;99.90;;;;;;6281683;22;20175;-86
2023/12/09 12:40:59;;;;;;;6.30;1.90;;;6.40;99.90;;;;;;6281594;22;20180;-82
2023/12/09 12:43:30;;;;;;;6.60;2.03;;;6.40;99.90;;;;;;6282224;22;20528;-84